createdAt,value
2023-08-26T00:01:36.164Z,100.00
2023-08-26T00:04:02.689Z,100.00
2023-08-26T00:06:29.160Z,100.00
2023-08-26T00:08:55.620Z,100.00
2023-08-26T00:11:22.106Z,100.00
2023-08-26T00:13:48.547Z,100.00
2023-08-26T00:16:15.516Z,100.00
2023-08-26T00:18:42.190Z,100.00
2023-08-26T00:21:08.729Z,100.00
2023-08-26T00:23:35.154Z,100.00
2023-08-26T00:26:02.246Z,100.00
2023-08-26T00:28:28.756Z,100.00
2023-08-26T00:30:58.243Z,100.00
2023-08-26T00:33:24.729Z,100.00
2023-08-26T00:35:51.238Z,100.00
2023-08-26T00:38:17.712Z,100.00
2023-08-26T00:40:44.347Z,100.00
2023-08-26T00:43:11.450Z,100.00
2023-08-26T00:45:41.313Z,100.00
2023-08-26T00:48:09.784Z,100.00
2023-08-26T00:50:38.598Z,100.00
2023-08-26T00:53:05.451Z,100.00
2023-08-26T00:55:32.980Z,100.00
2023-08-26T00:57:59.692Z,100.00
2023-08-26T01:00:27.145Z,100.00
2023-08-26T01:02:53.929Z,100.00
2023-08-26T01:05:20.443Z,100.00
2023-08-26T01:07:47.282Z,100.00
2023-08-26T01:10:13.908Z,100.00
2023-08-26T01:12:53.370Z,100.00
2023-08-26T01:15:20.430Z,100.00
2023-08-26T01:17:47.177Z,100.00
2023-08-26T01:20:15.659Z,100.00
2023-08-26T01:22:43.339Z,100.00
2023-08-26T01:25:09.941Z,100.00
2023-08-26T01:27:36.380Z,100.00
2023-08-26T01:30:03.139Z,100.00
2023-08-26T01:32:42.427Z,100.00
2023-08-26T01:35:13.993Z,100.00
2023-08-26T01:37:42.287Z,100.00
2023-08-26T01:40:10.979Z,100.00
2023-08-26T01:42:39.297Z,100.00
2023-08-26T01:45:06.701Z,100.00
2023-08-26T01:47:33.416Z,100.00
2023-08-26T01:50:00.235Z,100.00
2023-08-26T01:52:26.766Z,100.00
2023-08-26T01:54:53.229Z,100.00
2023-08-26T01:57:19.641Z,100.00
2023-08-26T01:59:46.165Z,100.00
2023-08-26T02:02:13.441Z,100.00
2023-08-26T02:04:40.314Z,100.00
2023-08-26T02:07:06.832Z,100.00
2023-08-26T02:09:34.911Z,100.00
2023-08-26T02:12:01.376Z,100.00
2023-08-26T02:14:27.790Z,100.00
2023-08-26T02:16:54.472Z,100.00
2023-08-26T02:19:20.926Z,100.00
2023-08-26T02:21:47.396Z,100.00
2023-08-26T02:24:13.960Z,100.00
2023-08-26T02:26:40.796Z,100.00
2023-08-26T02:29:07.200Z,100.00
2023-08-26T02:31:33.709Z,100.00
2023-08-26T02:34:00.157Z,100.00
2023-08-26T02:36:26.639Z,100.00
2023-08-26T02:38:53.047Z,100.00
2023-08-26T02:41:19.461Z,100.00
2023-08-26T02:43:45.904Z,100.00
2023-08-26T02:46:12.426Z,100.00
2023-08-26T02:48:38.913Z,100.00
2023-08-26T02:51:05.420Z,100.00
2023-08-26T02:53:32.119Z,100.00
2023-08-26T02:55:59.038Z,100.00
2023-08-26T02:58:25.922Z,100.00
2023-08-26T03:00:52.457Z,100.00
2023-08-26T03:03:19.391Z,100.00
2023-08-26T03:05:46.157Z,100.00
2023-08-26T03:08:12.629Z,100.00
2023-08-26T03:10:39.173Z,100.00
2023-08-26T03:13:08.150Z,100.00
2023-08-26T03:15:34.739Z,100.00
2023-08-26T03:18:01.422Z,100.00
2023-08-26T03:20:28.085Z,100.00
2023-08-26T03:22:54.531Z,100.00
2023-08-26T03:25:21.030Z,100.00
2023-08-26T03:27:47.480Z,100.00
2023-08-26T03:30:14.103Z,100.00
2023-08-26T03:32:40.669Z,100.00
2023-08-26T03:35:07.919Z,100.00
2023-08-26T03:37:34.412Z,100.00
2023-08-26T03:40:01.370Z,100.00
2023-08-26T03:42:27.968Z,100.00
2023-08-26T03:44:54.395Z,100.00
2023-08-26T03:47:20.911Z,100.00
2023-08-26T03:49:47.315Z,100.00
2023-08-26T03:52:13.755Z,100.00
2023-08-26T03:54:40.352Z,100.00
2023-08-26T03:57:06.796Z,100.00
2023-08-26T03:59:33.262Z,100.00
2023-08-26T04:01:59.748Z,100.00
2023-08-26T04:04:26.339Z,100.00
2023-08-26T04:06:53.559Z,100.00
2023-08-26T04:09:20.018Z,100.00
2023-08-26T04:11:46.466Z,100.00
2023-08-26T04:14:12.904Z,100.00
2023-08-26T04:16:39.608Z,100.00
2023-08-26T04:19:06.208Z,100.00
2023-08-26T04:21:33.229Z,100.00
2023-08-26T04:23:59.809Z,100.00
2023-08-26T04:26:26.293Z,100.00
2023-08-26T04:28:52.741Z,100.00
2023-08-26T04:31:19.206Z,100.00
2023-08-26T04:33:45.941Z,100.00
2023-08-26T04:36:12.457Z,100.00
2023-08-26T04:38:38.893Z,100.00
2023-08-26T04:41:05.400Z,100.00
2023-08-26T04:43:31.866Z,100.00
2023-08-26T04:45:59.371Z,100.00
2023-08-26T04:48:25.842Z,100.00
2023-08-26T04:50:52.268Z,100.00
2023-08-26T04:53:18.957Z,100.00
2023-08-26T04:55:45.403Z,100.00
2023-08-26T04:58:11.903Z,100.00
2023-08-26T05:00:42.564Z,100.00
2023-08-26T05:03:09.276Z,100.00
2023-08-26T05:05:35.940Z,100.00
2023-08-26T05:08:02.383Z,100.00
2023-08-26T05:10:28.846Z,100.00
2023-08-26T05:12:55.264Z,100.00
2023-08-26T05:15:21.762Z,100.00
2023-08-26T05:17:48.269Z,100.00
2023-08-26T05:20:14.833Z,100.00
2023-08-26T05:22:41.522Z,100.00
2023-08-26T05:25:08.606Z,100.00
2023-08-26T05:27:35.124Z,100.00
2023-08-26T05:30:01.920Z,100.00
2023-08-26T05:32:28.536Z,100.00
2023-08-26T05:34:55.296Z,100.00
2023-08-26T05:37:21.925Z,100.00
2023-08-26T05:39:48.368Z,100.00
2023-08-26T05:42:14.876Z,100.00
2023-08-26T05:44:41.357Z,99.26
2023-08-26T05:47:07.855Z,92.29
2023-08-26T05:49:34.262Z,86.40
2023-08-26T05:52:00.717Z,84.59
2023-08-26T05:54:27.226Z,80.13
2023-08-26T05:56:53.742Z,76.79
2023-08-26T05:59:20.211Z,76.32
2023-08-26T06:01:46.832Z,75.31
2023-08-26T06:04:13.345Z,71.55
2023-08-26T06:06:39.858Z,69.03
2023-08-26T06:09:06.363Z,67.09
2023-08-26T06:11:33.015Z,65.87
2023-08-26T06:13:59.768Z,70.65
2023-08-26T06:16:26.273Z,72.10
2023-08-26T06:18:52.925Z,73.17
2023-08-26T06:21:19.365Z,74.52
2023-08-26T06:23:45.779Z,74.77
2023-08-26T06:26:12.252Z,73.01
2023-08-26T06:28:38.732Z,69.36
2023-08-26T06:31:05.224Z,67.65
2023-08-26T06:33:31.832Z,66.57
2023-08-26T06:35:58.376Z,64.95
2023-08-26T06:38:25.045Z,64.44
2023-08-26T06:40:55.516Z,64.02
2023-08-26T06:43:22.686Z,62.73
2023-08-26T06:45:50.060Z,60.88
2023-08-26T06:48:17.888Z,56.95
2023-08-26T06:50:51.598Z,57.49
2023-08-26T06:53:22.325Z,56.72
2023-08-26T06:58:16.369Z,55.87
2023-08-26T07:00:43.474Z,54.80
2023-08-26T07:03:11.019Z,54.27
2023-08-26T07:05:45.200Z,54.35
2023-08-26T07:08:12.186Z,53.71
2023-08-26T07:10:38.726Z,53.38
2023-08-26T07:13:05.921Z,53.28
2023-08-26T07:15:32.460Z,52.12
2023-08-26T07:17:59.243Z,52.38
2023-08-26T07:20:25.942Z,52.09
2023-08-26T07:22:52.506Z,52.94
2023-08-26T07:25:19.030Z,51.60
2023-08-26T07:27:46.561Z,53.34
2023-08-26T07:30:14.912Z,56.37
2023-08-26T07:32:42.536Z,55.66
2023-08-26T07:35:10.786Z,57.58
2023-08-26T07:37:37.902Z,59.23
2023-08-26T07:40:07.087Z,62.50
2023-08-26T07:42:39.145Z,63.01
2023-08-26T07:45:05.964Z,63.85
2023-08-26T07:50:01.829Z,61.73
2023-08-26T07:52:30.248Z,60.60
2023-08-26T07:54:57.031Z,62.09
2023-08-26T07:57:23.627Z,64.76
2023-08-26T07:59:50.040Z,64.77
2023-08-26T08:02:18.088Z,66.70
2023-08-26T08:04:44.620Z,67.30
2023-08-26T08:07:11.046Z,69.27
2023-08-26T08:09:39.360Z,71.00
2023-08-26T08:12:06.476Z,71.48
2023-08-26T08:14:32.926Z,71.83
2023-08-26T08:16:59.353Z,71.28
2023-08-26T08:19:26.014Z,71.54
2023-08-26T08:21:52.449Z,70.36
2023-08-26T08:24:18.954Z,71.21
2023-08-26T08:26:45.492Z,72.24
2023-08-26T08:29:12.036Z,72.71
2023-08-26T08:31:38.679Z,71.65
2023-08-26T08:34:05.632Z,71.26
2023-08-26T08:36:32.063Z,70.66
2023-08-26T08:38:58.584Z,71.37
2023-08-26T08:41:25.255Z,70.83
2023-08-26T08:43:59.858Z,70.01
2023-08-26T08:46:27.785Z,70.28
2023-08-26T08:48:54.259Z,69.84
2023-08-26T08:51:22.439Z,70.20
2023-08-26T08:53:51.039Z,70.85
2023-08-26T08:56:18.248Z,70.95
2023-08-26T08:58:48.413Z,70.16
2023-08-26T09:01:18.657Z,70.68
2023-08-26T09:03:46.815Z,70.88
2023-08-26T09:06:15.317Z,68.63
2023-08-26T09:08:43.804Z,71.88
2023-08-26T09:11:10.384Z,69.38
2023-08-26T09:13:36.775Z,70.37
2023-08-26T09:16:04.159Z,69.42
2023-08-26T09:18:30.648Z,68.99
2023-08-26T09:20:57.120Z,70.42
2023-08-26T09:23:23.697Z,68.07
2023-08-26T09:25:57.809Z,68.08
2023-08-26T09:28:27.184Z,66.71
2023-08-26T09:31:07.344Z,66.87
2023-08-26T09:33:34.714Z,65.18
2023-08-26T09:38:41.560Z,66.54
2023-08-26T09:41:08.013Z,65.82
2023-08-26T09:43:34.858Z,65.18
2023-08-26T09:46:01.348Z,65.85
2023-08-26T09:48:27.935Z,65.02
2023-08-26T09:50:54.409Z,64.33
2023-08-26T09:53:34.352Z,67.02
2023-08-26T09:56:03.171Z,67.60
2023-08-26T09:58:29.972Z,67.51
2023-08-26T10:00:57.743Z,66.25
2023-08-26T10:03:26.276Z,65.00
2023-08-26T10:05:56.971Z,64.75
2023-08-26T10:08:31.145Z,66.50
2023-08-26T10:11:00.603Z,65.38
2023-08-26T10:13:28.895Z,65.33
2023-08-26T10:16:00.268Z,66.07
2023-08-26T10:18:38.952Z,67.19
2023-08-26T10:21:05.972Z,67.64
2023-08-26T10:23:33.162Z,69.04
2023-08-26T10:26:00.791Z,70.04
2023-08-26T10:28:28.270Z,69.88
2023-08-26T10:30:55.377Z,70.51
2023-08-26T10:33:22.041Z,70.97
2023-08-26T10:36:12.616Z,72.34
2023-08-26T10:38:40.273Z,71.77
2023-08-26T10:41:13.818Z,69.80
2023-08-26T10:43:57.740Z,71.00
2023-08-26T10:46:38.609Z,69.53
2023-08-26T10:49:05.550Z,69.09
2023-08-26T10:51:35.762Z,67.32
2023-08-26T10:54:04.402Z,67.21
2023-08-26T10:56:34.581Z,66.81
2023-08-26T10:59:05.481Z,68.26
2023-08-26T11:01:38.043Z,68.82
2023-08-26T11:04:05.867Z,70.91
2023-08-26T11:06:39.705Z,73.72
2023-08-26T11:09:06.613Z,78.44
2023-08-26T11:11:33.676Z,82.40
2023-08-26T11:14:00.226Z,82.62
2023-08-26T11:16:26.868Z,84.33
2023-08-26T11:18:55.111Z,83.19
2023-08-26T11:21:23.126Z,82.12
2023-08-26T11:23:49.748Z,83.99
2023-08-26T11:26:21.391Z,82.81
2023-08-26T11:28:49.579Z,81.20
2023-08-26T11:31:17.369Z,82.85
2023-08-26T11:33:44.073Z,85.52
2023-08-26T11:36:10.785Z,85.24
2023-08-26T11:38:38.552Z,84.70
2023-08-26T11:41:06.726Z,87.49
2023-08-26T11:43:35.554Z,88.14
2023-08-26T11:46:02.352Z,83.43
2023-08-26T11:48:29.050Z,81.87
2023-08-26T11:51:01.752Z,81.07
2023-08-26T11:53:28.520Z,78.79
2023-08-26T11:55:55.434Z,79.15
2023-08-26T11:58:22.465Z,77.83
2023-08-26T12:00:51.858Z,77.53
2023-08-26T12:03:18.425Z,80.12
2023-08-26T12:05:49.508Z,80.44
2023-08-26T12:08:17.124Z,81.68
2023-08-26T12:10:48.187Z,77.89
2023-08-26T12:13:15.028Z,77.73
2023-08-26T12:15:42.791Z,76.44
2023-08-26T12:18:12.715Z,75.54
2023-08-26T12:20:43.472Z,74.43
2023-08-26T12:23:10.326Z,75.53
2023-08-26T12:25:38.821Z,76.92
2023-08-26T12:28:23.109Z,78.73
2023-08-26T12:30:49.794Z,78.21
2023-08-26T12:33:25.037Z,79.42
2023-08-26T12:35:53.541Z,78.94
2023-08-26T12:38:20.574Z,81.88
2023-08-26T12:40:49.426Z,85.70
2023-08-26T12:43:16.926Z,88.38
2023-08-26T12:45:44.157Z,89.68
2023-08-26T12:48:16.996Z,92.06
2023-08-26T12:50:49.393Z,95.41
2023-08-26T12:53:15.905Z,95.74
2023-08-26T12:55:42.395Z,96.55
2023-08-26T12:58:08.813Z,96.88
2023-08-26T13:00:35.269Z,96.83
2023-08-26T13:03:01.743Z,97.59
2023-08-26T13:05:28.837Z,95.46
2023-08-26T13:07:55.474Z,94.48
2023-08-26T13:10:22.376Z,96.41
2023-08-26T13:12:48.792Z,96.48
2023-08-26T13:15:15.592Z,97.05
2023-08-26T13:17:42.033Z,97.10
2023-08-26T13:20:10.973Z,96.69
2023-08-26T13:22:37.617Z,95.83
2023-08-26T13:25:04.636Z,97.02
2023-08-26T13:27:31.362Z,96.62
2023-08-26T13:29:57.774Z,97.65
2023-08-26T13:32:24.256Z,98.48
2023-08-26T13:34:50.822Z,98.58
2023-08-26T13:37:17.305Z,100.00
2023-08-26T13:39:44.800Z,100.00
2023-08-26T13:42:11.674Z,100.00
2023-08-26T13:44:38.153Z,100.00
2023-08-26T13:47:04.837Z,100.00
2023-08-26T13:49:31.599Z,95.60
2023-08-26T13:51:58.246Z,96.52
2023-08-26T13:54:25.201Z,99.65
2023-08-26T13:56:51.667Z,99.72
2023-08-26T13:59:18.197Z,98.58
2023-08-26T14:01:44.753Z,100.00
2023-08-26T14:04:11.234Z,100.00
2023-08-26T14:06:37.721Z,100.00
2023-08-26T14:09:04.481Z,100.00
2023-08-26T14:11:31.126Z,100.00
2023-08-26T14:13:57.611Z,100.00
2023-08-26T14:16:24.206Z,100.00
2023-08-26T14:18:50.716Z,99.51
2023-08-26T14:21:17.508Z,98.93
2023-08-26T14:23:45.704Z,99.80
2023-08-26T14:26:13.973Z,100.00
2023-08-26T14:28:40.429Z,99.64
2023-08-26T14:31:07.037Z,100.00
2023-08-26T14:33:33.648Z,100.00
2023-08-26T14:36:00.297Z,100.00
2023-08-26T14:38:27.071Z,99.57
2023-08-26T14:40:53.637Z,100.00
2023-08-26T14:43:20.440Z,100.00
2023-08-26T14:45:49.705Z,100.00
2023-08-26T14:48:16.741Z,100.00
2023-08-26T14:50:44.593Z,100.00
2023-08-26T14:53:11.066Z,100.00
2023-08-26T14:55:42.302Z,98.87
2023-08-26T14:58:10.120Z,100.00
2023-08-26T15:00:37.299Z,100.00
2023-08-26T15:03:03.981Z,99.67
2023-08-26T15:05:30.737Z,100.00
2023-08-26T15:07:57.436Z,100.00
2023-08-26T15:10:24.052Z,100.00
2023-08-26T15:12:50.470Z,99.23
2023-08-26T15:15:17.582Z,95.42
2023-08-26T15:17:44.924Z,94.73
2023-08-26T15:20:12.134Z,92.27
2023-08-26T15:22:39.361Z,91.68
2023-08-26T15:25:06.616Z,91.76
2023-08-26T15:27:33.163Z,89.00
2023-08-26T15:29:59.723Z,91.75
2023-08-26T15:32:26.275Z,89.07
2023-08-26T15:34:52.867Z,92.50
2023-08-26T15:37:19.399Z,87.79
2023-08-26T15:39:45.838Z,85.63
2023-08-26T15:42:13.692Z,86.00
2023-08-26T15:44:40.971Z,87.42
2023-08-26T15:47:07.614Z,85.72
2023-08-26T15:49:34.441Z,84.01
2023-08-26T15:52:01.041Z,84.85
2023-08-26T15:54:27.616Z,84.11
2023-08-26T15:56:54.085Z,85.37
2023-08-26T15:59:20.579Z,86.08
2023-08-26T16:01:47.028Z,86.95
2023-08-26T16:04:13.447Z,87.80
2023-08-26T16:06:39.912Z,88.47
2023-08-26T16:09:07.277Z,85.61
2023-08-26T16:11:33.835Z,83.07
2023-08-26T16:14:00.662Z,84.97
2023-08-26T16:16:29.324Z,86.45
2023-08-26T16:18:56.398Z,82.13
2023-08-26T16:21:23.498Z,84.23
2023-08-26T16:23:50.920Z,84.68
2023-08-26T16:26:17.731Z,84.53
2023-08-26T16:28:44.399Z,86.51
2023-08-26T16:31:10.871Z,86.40
2023-08-26T16:33:37.421Z,86.50
2023-08-26T16:36:07.197Z,88.10
2023-08-26T16:38:33.955Z,88.61
2023-08-26T16:41:02.139Z,88.99
2023-08-26T16:43:28.929Z,90.03
2023-08-26T16:45:55.450Z,91.53
2023-08-26T16:48:21.901Z,94.38
2023-08-26T16:50:48.378Z,96.83
2023-08-26T16:53:14.848Z,96.98
2023-08-26T16:55:41.671Z,94.12
2023-08-26T16:58:08.620Z,96.54
2023-08-26T17:00:35.933Z,97.79
2023-08-26T17:03:02.850Z,99.11
2023-08-26T17:05:29.404Z,100.00
2023-08-26T17:07:56.075Z,99.40
2023-08-26T17:10:22.659Z,98.93
2023-08-26T17:12:49.118Z,100.00
2023-08-26T17:15:15.925Z,100.00
2023-08-26T17:17:42.440Z,100.00
2023-08-26T17:20:09.471Z,100.00
2023-08-26T17:22:35.969Z,100.00
2023-08-26T17:25:02.446Z,100.00
2023-08-26T17:27:33.052Z,100.00
2023-08-26T17:29:59.520Z,100.00
2023-08-26T17:32:26.062Z,100.00
2023-08-26T17:34:52.748Z,100.00
2023-08-26T17:37:20.167Z,100.00
2023-08-26T17:39:46.770Z,100.00
2023-08-26T17:42:13.483Z,100.00
2023-08-26T17:44:40.047Z,100.00
2023-08-26T17:47:06.591Z,100.00
2023-08-26T17:49:33.279Z,100.00
2023-08-26T17:51:59.745Z,100.00
2023-08-26T17:54:26.512Z,100.00
2023-08-26T17:56:53.070Z,100.00
2023-08-26T17:59:19.530Z,100.00
2023-08-26T18:01:46.125Z,100.00
2023-08-26T18:04:12.715Z,100.00
2023-08-26T18:06:39.417Z,100.00
2023-08-26T18:09:06.138Z,100.00
2023-08-26T18:11:33.154Z,100.00
2023-08-26T18:13:59.680Z,100.00
2023-08-26T18:16:26.419Z,100.00
2023-08-26T18:18:53.796Z,100.00
2023-08-26T18:21:20.823Z,100.00
2023-08-26T18:23:47.480Z,100.00
2023-08-26T18:26:13.902Z,100.00
2023-08-26T18:28:40.391Z,100.00
2023-08-26T18:31:06.845Z,100.00
2023-08-26T18:33:33.307Z,100.00
2023-08-26T18:35:59.725Z,100.00
2023-08-26T18:38:26.133Z,100.00
2023-08-26T18:40:57.275Z,100.00
2023-08-26T18:43:24.434Z,100.00
2023-08-26T18:45:51.962Z,100.00
2023-08-26T18:48:19.684Z,100.00
2023-08-26T18:50:55.073Z,100.00
2023-08-26T18:53:21.487Z,100.00
2023-08-26T18:55:52.654Z,100.00
2023-08-26T18:58:19.529Z,100.00
2023-08-26T19:00:53.939Z,100.00
2023-08-26T19:03:20.479Z,100.00
2023-08-26T19:05:49.186Z,100.00
2023-08-26T19:08:15.703Z,100.00
2023-08-26T19:10:42.656Z,100.00
2023-08-26T19:13:12.638Z,100.00
2023-08-26T19:15:40.674Z,100.00
2023-08-26T19:18:08.320Z,100.00
2023-08-26T19:20:38.497Z,100.00
2023-08-26T19:23:05.785Z,100.00
2023-08-26T19:25:32.788Z,100.00
2023-08-26T19:27:59.704Z,100.00
2023-08-26T19:30:26.313Z,100.00
2023-08-26T19:32:54.641Z,100.00
2023-08-26T19:35:21.198Z,100.00
2023-08-26T19:37:47.778Z,100.00
2023-08-26T19:40:17.451Z,100.00
2023-08-26T19:42:43.868Z,100.00
2023-08-26T19:45:11.178Z,100.00
2023-08-26T19:47:39.183Z,100.00
2023-08-26T19:50:08.088Z,100.00
2023-08-26T19:52:34.813Z,100.00
2023-08-26T19:55:03.581Z,100.00
2023-08-26T19:57:30.484Z,100.00
2023-08-26T19:59:57.040Z,100.00
2023-08-26T20:02:23.593Z,100.00
2023-08-26T20:04:50.816Z,100.00
2023-08-26T20:07:18.097Z,100.00
2023-08-26T20:09:44.783Z,100.00
2023-08-26T20:12:11.410Z,100.00
2023-08-26T20:14:37.893Z,100.00
2023-08-26T20:17:04.366Z,100.00
2023-08-26T20:19:33.245Z,100.00
2023-08-26T20:22:01.258Z,100.00
2023-08-26T20:24:29.139Z,100.00
2023-08-26T20:26:55.626Z,100.00
2023-08-26T20:29:22.676Z,100.00
2023-08-26T20:31:50.731Z,100.00
2023-08-26T20:34:18.032Z,100.00
2023-08-26T20:36:44.661Z,100.00
2023-08-26T20:39:14.480Z,100.00
2023-08-26T20:41:41.001Z,100.00
2023-08-26T20:44:07.911Z,100.00
2023-08-26T20:46:35.440Z,100.00
2023-08-26T20:49:02.031Z,100.00
2023-08-26T20:51:32.144Z,100.00
2023-08-26T20:53:58.982Z,100.00
2023-08-26T20:56:27.058Z,100.00
2023-08-26T20:58:54.419Z,100.00
2023-08-26T21:01:21.075Z,100.00
2023-08-26T21:03:49.418Z,100.00
2023-08-26T21:06:16.144Z,100.00
2023-08-26T21:08:42.618Z,100.00
2023-08-26T21:11:09.353Z,100.00
2023-08-26T21:13:36.707Z,100.00
2023-08-26T21:16:03.494Z,100.00
2023-08-26T21:18:30.370Z,100.00
2023-08-26T21:20:57.317Z,100.00
2023-08-26T21:23:23.852Z,100.00
2023-08-26T21:25:51.702Z,100.00
2023-08-26T21:28:18.459Z,100.00
2023-08-26T21:30:45.105Z,100.00
2023-08-26T21:33:11.781Z,100.00
2023-08-26T21:35:38.260Z,100.00
2023-08-26T21:38:05.016Z,100.00
2023-08-26T21:40:31.479Z,100.00
2023-08-26T21:42:58.842Z,100.00
2023-08-26T21:45:25.753Z,100.00
2023-08-26T21:47:52.436Z,100.00
2023-08-26T21:50:19.337Z,100.00
2023-08-26T21:52:46.006Z,100.00
2023-08-26T21:55:12.470Z,100.00
2023-08-26T21:57:42.295Z,100.00
2023-08-26T22:00:12.463Z,100.00
2023-08-26T22:02:38.978Z,100.00
2023-08-26T22:05:05.624Z,100.00
2023-08-26T22:07:32.108Z,100.00
2023-08-26T22:09:58.536Z,100.00
2023-08-26T22:12:25.013Z,100.00
2023-08-26T22:14:51.450Z,100.00
2023-08-26T22:17:17.854Z,100.00
2023-08-26T22:19:44.277Z,100.00
2023-08-26T22:22:10.866Z,100.00
2023-08-26T22:24:37.361Z,100.00
2023-08-26T22:27:04.022Z,100.00
2023-08-26T22:29:30.427Z,100.00
2023-08-26T22:31:56.908Z,100.00
2023-08-26T22:34:23.324Z,100.00
2023-08-26T22:36:49.739Z,100.00
2023-08-26T22:39:19.924Z,100.00
2023-08-26T22:41:52.483Z,100.00
2023-08-26T22:44:19.023Z,100.00
2023-08-26T22:46:45.463Z,100.00
2023-08-26T22:49:12.232Z,100.00
2023-08-26T22:51:38.686Z,100.00
2023-08-26T22:54:05.343Z,100.00
2023-08-26T22:56:31.914Z,100.00
2023-08-26T22:58:58.833Z,100.00
2023-08-26T23:01:25.402Z,100.00
2023-08-26T23:03:52.862Z,100.00
2023-08-26T23:06:19.301Z,100.00
2023-08-26T23:08:45.706Z,100.00
2023-08-26T23:11:12.094Z,100.00
2023-08-26T23:13:38.509Z,100.00
2023-08-26T23:16:06.284Z,100.00
2023-08-26T23:18:32.798Z,100.00
2023-08-26T23:20:59.282Z,100.00
2023-08-26T23:23:26.393Z,100.00
2023-08-26T23:25:52.855Z,100.00
2023-08-26T23:28:19.511Z,100.00
2023-08-26T23:30:47.618Z,100.00
2023-08-26T23:33:14.065Z,100.00
2023-08-26T23:35:40.490Z,100.00
2023-08-26T23:38:07.396Z,100.00
2023-08-26T23:40:33.805Z,100.00
2023-08-26T23:43:00.435Z,100.00
2023-08-26T23:45:27.165Z,100.00
2023-08-26T23:47:54.050Z,100.00
2023-08-26T23:50:21.185Z,100.00
2023-08-26T23:52:48.523Z,100.00
2023-08-26T23:55:15.535Z,100.00
2023-08-26T23:57:42.016Z,100.00
